createdAt,value
2022-12-27T00:01:34.423Z,87.31
2022-12-27T00:04:01.733Z,88.28
2022-12-27T00:06:29.022Z,88.93
2022-12-27T00:08:56.458Z,88.64
2022-12-27T00:11:25.812Z,87.89
2022-12-27T00:13:53.146Z,87.99
2022-12-27T00:16:21.034Z,88.86
2022-12-27T00:18:49.689Z,88.87
2022-12-27T00:21:17.326Z,87.87
2022-12-27T00:23:48.454Z,87.17
2022-12-27T00:26:16.612Z,88.18
2022-12-27T00:28:43.886Z,88.96
2022-12-27T00:31:11.091Z,87.99
2022-12-27T00:33:39.112Z,87.09
2022-12-27T00:36:07.922Z,87.13
2022-12-27T00:38:34.992Z,87.66
2022-12-27T00:41:02.211Z,88.34
2022-12-27T00:43:29.218Z,88.01
2022-12-27T00:45:56.214Z,87.47
2022-12-27T00:48:23.320Z,87.53
2022-12-27T00:50:50.344Z,88.28
2022-12-27T00:53:17.522Z,88.14
2022-12-27T00:55:44.640Z,87.11
2022-12-27T00:58:11.629Z,86.86
2022-12-27T01:00:38.754Z,87.85
2022-12-27T01:03:05.760Z,88.32
2022-12-27T01:05:32.763Z,86.83
2022-12-27T01:07:59.764Z,86.23
2022-12-27T01:10:26.756Z,86.67
2022-12-27T01:12:53.890Z,87.80
2022-12-27T01:15:20.883Z,88.11
2022-12-27T01:17:47.780Z,87.38
2022-12-27T01:20:14.927Z,87.49
2022-12-27T01:22:41.889Z,87.72
2022-12-27T01:25:09.020Z,88.99
2022-12-27T01:27:35.994Z,87.99
2022-12-27T01:31:12.741Z,87.00
2022-12-27T01:33:39.990Z,87.48
2022-12-27T01:36:13.953Z,88.83
2022-12-27T01:38:43.781Z,88.81
2022-12-27T01:41:32.603Z,87.22
2022-12-27T01:44:00.266Z,86.69
2022-12-27T01:46:27.288Z,87.77
2022-12-27T01:48:54.993Z,88.13
2022-12-27T01:51:21.998Z,86.87
2022-12-27T01:53:49.357Z,86.58
2022-12-27T01:56:26.849Z,86.57
2022-12-27T01:59:00.835Z,86.97
2022-12-27T02:01:30.763Z,87.25
2022-12-27T02:04:01.145Z,86.23
2022-12-27T02:06:32.007Z,85.56
2022-12-27T02:09:18.218Z,85.83
2022-12-27T02:11:54.569Z,86.46
2022-12-27T02:14:28.350Z,87.14
2022-12-27T02:17:00.026Z,86.38
2022-12-27T02:19:37.974Z,85.66
2022-12-27T02:22:17.696Z,85.87
2022-12-27T02:24:47.655Z,86.67
2022-12-27T02:27:45.481Z,87.11
2022-12-27T02:30:13.153Z,85.43
2022-12-27T02:32:42.649Z,85.07
2022-12-27T02:35:26.621Z,85.28
2022-12-27T02:38:06.506Z,85.91
2022-12-27T02:40:53.481Z,86.12
2022-12-27T02:43:39.726Z,84.95
2022-12-27T02:46:40.048Z,85.00
2022-12-27T02:49:48.448Z,85.70
2022-12-27T02:53:05.423Z,86.64
2022-12-27T02:56:08.309Z,85.15
2022-12-27T02:58:51.658Z,84.84
2022-12-27T03:01:40.716Z,85.37
2022-12-27T03:04:29.863Z,86.36
2022-12-27T03:07:09.270Z,85.91
2022-12-27T03:10:16.150Z,84.92
2022-12-27T03:13:29.258Z,85.28
2022-12-27T03:16:12.159Z,86.13
2022-12-27T03:18:58.747Z,86.81
2022-12-27T03:21:54.597Z,85.45
2022-12-27T03:24:46.067Z,84.99
2022-12-27T03:27:27.969Z,85.59
2022-12-27T03:30:14.781Z,86.41
2022-12-27T03:33:04.857Z,85.97
2022-12-27T03:35:37.844Z,84.97
2022-12-27T03:38:05.411Z,84.88
2022-12-27T03:41:04.012Z,85.63
2022-12-27T03:43:31.019Z,86.73
2022-12-27T03:46:32.176Z,86.15
2022-12-27T03:49:10.966Z,84.63
2022-12-27T03:51:42.286Z,84.86
2022-12-27T03:54:12.930Z,85.50
2022-12-27T03:56:42.000Z,86.63
2022-12-27T03:59:10.255Z,85.75
2022-12-27T04:01:37.417Z,84.76
2022-12-27T04:04:04.554Z,84.68
2022-12-27T04:06:32.925Z,85.37
2022-12-27T04:09:18.457Z,86.18
2022-12-27T04:12:04.323Z,86.32
2022-12-27T04:14:50.479Z,85.01
2022-12-27T04:17:36.232Z,84.70
2022-12-27T04:20:22.490Z,85.29
2022-12-27T04:23:08.047Z,86.46
2022-12-27T04:25:53.963Z,85.97
2022-12-27T04:28:39.986Z,84.58
2022-12-27T04:31:25.906Z,84.68
2022-12-27T04:34:12.641Z,85.70
2022-12-27T04:36:40.632Z,86.78
2022-12-27T04:39:07.533Z,86.14
2022-12-27T04:41:53.444Z,84.67
2022-12-27T04:44:39.125Z,84.67
2022-12-27T04:47:29.224Z,85.39
2022-12-27T04:50:15.071Z,86.50
2022-12-27T04:53:01.323Z,86.89
2022-12-27T04:55:28.889Z,85.18
2022-12-27T04:57:56.829Z,84.71
2022-12-27T05:00:47.176Z,85.26
2022-12-27T05:03:18.743Z,86.29
2022-12-27T05:05:46.151Z,86.88
2022-12-27T05:08:32.019Z,85.50
2022-12-27T05:11:17.551Z,84.33
2022-12-27T05:14:00.118Z,84.80
2022-12-27T05:16:28.304Z,85.54
2022-12-27T05:18:55.257Z,86.41
2022-12-27T05:21:22.579Z,86.04
2022-12-27T05:24:08.377Z,84.40
2022-12-27T05:26:38.179Z,83.71
2022-12-27T05:29:05.856Z,84.59
2022-12-27T05:31:33.336Z,85.51
2022-12-27T05:34:00.705Z,86.45
2022-12-27T05:36:28.527Z,85.70
2022-12-27T05:38:55.636Z,84.59
2022-12-27T05:41:22.620Z,84.82
2022-12-27T05:43:49.862Z,85.48
2022-12-27T05:46:18.831Z,86.64
2022-12-27T05:48:46.108Z,86.44
2022-12-27T05:51:18.377Z,84.86
2022-12-27T05:53:46.037Z,84.46
2022-12-27T05:56:14.729Z,85.02
2022-12-27T05:58:42.390Z,86.00
2022-12-27T06:01:10.672Z,87.22
2022-12-27T06:03:38.036Z,86.70
2022-12-27T06:06:06.265Z,85.20
2022-12-27T06:08:35.232Z,85.07
2022-12-27T06:11:06.670Z,86.16
2022-12-27T06:13:33.635Z,86.86
2022-12-27T06:16:01.635Z,87.74
2022-12-27T06:18:29.414Z,86.76
2022-12-27T06:21:07.220Z,85.43
2022-12-27T06:23:35.501Z,85.75
2022-12-27T06:26:07.683Z,86.46
2022-12-27T06:28:34.477Z,87.77
2022-12-27T06:31:01.578Z,87.48
2022-12-27T06:33:28.785Z,85.86
2022-12-27T06:35:55.976Z,85.30
2022-12-27T06:38:25.257Z,85.74
2022-12-27T06:40:52.513Z,86.50
2022-12-27T06:43:19.552Z,87.37
2022-12-27T06:45:55.785Z,86.92
2022-12-27T06:48:23.273Z,85.33
2022-12-27T06:50:50.423Z,85.04
2022-12-27T06:53:17.884Z,85.36
2022-12-27T06:55:47.996Z,86.12
2022-12-27T06:58:15.077Z,86.71
2022-12-27T07:00:43.640Z,85.70
2022-12-27T07:03:11.039Z,84.61
2022-12-27T07:05:38.247Z,84.39
2022-12-27T07:08:05.638Z,84.94
2022-12-27T07:10:32.855Z,85.57
2022-12-27T07:13:02.546Z,86.21
2022-12-27T07:15:29.530Z,85.66
2022-12-27T07:17:56.954Z,84.24
2022-12-27T07:20:24.039Z,84.03
2022-12-27T07:22:51.162Z,84.41
2022-12-27T07:25:18.274Z,84.86
2022-12-27T07:27:45.400Z,85.48
2022-12-27T07:30:12.600Z,84.10
2022-12-27T07:32:39.669Z,83.15
2022-12-27T07:35:07.608Z,83.30
2022-12-27T07:37:37.011Z,84.00
2022-12-27T07:40:04.776Z,84.54
2022-12-27T07:42:31.649Z,85.28
2022-12-27T07:44:58.871Z,84.38
2022-12-27T07:47:26.022Z,83.14
2022-12-27T07:49:53.270Z,82.93
2022-12-27T07:52:20.844Z,83.45
2022-12-27T07:54:47.879Z,84.16
2022-12-27T07:57:15.075Z,84.99
2022-12-27T07:59:42.278Z,83.80
2022-12-27T08:02:09.479Z,82.85
2022-12-27T08:04:37.815Z,82.50
2022-12-27T08:07:12.168Z,83.03
2022-12-27T08:09:39.253Z,83.55
2022-12-27T08:12:07.408Z,84.25
2022-12-27T08:14:34.671Z,83.86
2022-12-27T08:17:08.060Z,82.49
2022-12-27T08:19:35.406Z,81.71
2022-12-27T08:22:04.596Z,82.00
2022-12-27T08:24:32.011Z,83.21
2022-12-27T08:27:00.050Z,84.74
2022-12-27T08:29:27.023Z,84.72
2022-12-27T08:31:54.063Z,83.71
2022-12-27T08:34:21.112Z,84.08
2022-12-27T08:36:56.438Z,84.64
2022-12-27T08:39:23.912Z,85.77
2022-12-27T08:41:52.920Z,86.22
2022-12-27T08:44:20.975Z,84.88
2022-12-27T08:46:48.229Z,84.45
2022-12-27T08:49:17.171Z,84.78
2022-12-27T08:51:44.324Z,85.74
2022-12-27T08:54:11.432Z,86.99
2022-12-27T08:56:40.818Z,86.41
2022-12-27T08:59:07.984Z,85.72
2022-12-27T09:01:35.245Z,85.07
2022-12-27T09:04:02.522Z,85.94
2022-12-27T09:06:29.663Z,86.18
2022-12-27T09:08:57.091Z,85.94
2022-12-27T09:11:33.515Z,84.66
2022-12-27T09:14:02.442Z,84.37
2022-12-27T09:16:30.113Z,84.98
2022-12-27T09:18:59.149Z,85.91
2022-12-27T09:21:28.496Z,86.07
2022-12-27T09:23:55.443Z,84.33
2022-12-27T09:26:26.750Z,83.26
2022-12-27T09:28:53.761Z,83.01
2022-12-27T09:31:21.448Z,83.99
2022-12-27T09:33:48.647Z,85.26
2022-12-27T09:36:19.435Z,85.82
2022-12-27T09:38:46.388Z,84.27
2022-12-27T09:41:58.963Z,83.65
2022-12-27T09:44:15.986Z,84.39
2022-12-27T09:47:12.621Z,85.50
2022-12-27T09:49:42.914Z,86.25
2022-12-27T09:52:33.620Z,84.88
2022-12-27T09:55:29.423Z,84.55
2022-12-27T09:58:19.324Z,84.96
2022-12-27T10:00:49.864Z,85.88
2022-12-27T10:03:16.619Z,87.02
2022-12-27T10:05:43.860Z,86.28
2022-12-27T10:08:23.282Z,84.58
2022-12-27T10:11:38.252Z,83.71
2022-12-27T10:14:13.490Z,84.34
2022-12-27T10:16:46.846Z,85.14
2022-12-27T10:19:20.394Z,86.17
2022-12-27T10:22:02.075Z,85.76
2022-12-27T10:24:50.155Z,84.29
2022-12-27T10:27:22.505Z,84.06
2022-12-27T10:29:52.313Z,84.63
2022-12-27T10:32:19.378Z,86.00
2022-12-27T10:34:48.465Z,87.48
2022-12-27T10:37:15.896Z,86.02
2022-12-27T10:39:43.198Z,84.79
2022-12-27T10:42:25.295Z,84.90
2022-12-27T10:44:52.910Z,85.39
2022-12-27T10:47:20.001Z,85.36
2022-12-27T10:50:02.367Z,83.34
2022-12-27T10:52:31.486Z,82.70
2022-12-27T10:54:58.918Z,82.97
2022-12-27T10:57:28.116Z,83.72
2022-12-27T11:00:23.017Z,83.89
2022-12-27T11:02:50.107Z,82.82
2022-12-27T11:05:24.686Z,82.27
2022-12-27T11:07:51.742Z,82.81
2022-12-27T11:10:25.033Z,83.78
2022-12-27T11:19:03.607Z,83.58
2022-12-27T11:21:30.639Z,83.41
2022-12-27T11:24:01.813Z,84.06
2022-12-27T11:26:41.585Z,82.25
2022-12-27T11:29:16.149Z,82.55
2022-12-27T11:31:48.425Z,83.45
2022-12-27T11:34:17.511Z,84.04
2022-12-27T11:36:47.067Z,84.11
2022-12-27T11:39:40.407Z,83.00
2022-12-27T11:42:32.703Z,82.58
2022-12-27T11:45:04.756Z,83.68
2022-12-27T11:47:39.811Z,83.76
2022-12-27T11:50:06.965Z,82.80
2022-12-27T11:53:07.296Z,82.11
2022-12-27T11:55:52.779Z,82.72
2022-12-27T11:58:32.004Z,83.49
2022-12-27T12:01:18.033Z,83.73
2022-12-27T12:04:14.227Z,82.27
2022-12-27T12:06:48.801Z,80.48
2022-12-27T12:09:43.508Z,81.17
2022-12-27T12:12:29.427Z,82.30
2022-12-27T12:15:02.519Z,81.30
2022-12-27T12:17:53.228Z,79.70
2022-12-27T12:20:31.948Z,79.72
2022-12-27T12:23:28.136Z,80.44
2022-12-27T12:26:10.711Z,81.78
2022-12-27T12:29:01.082Z,80.42
2022-12-27T12:31:43.562Z,79.54
2022-12-27T12:34:32.247Z,80.20
2022-12-27T12:37:10.659Z,81.22
2022-12-27T12:40:11.971Z,81.07
2022-12-27T12:42:54.400Z,80.12
2022-12-27T12:45:43.803Z,80.53
2022-12-27T12:48:22.919Z,81.41
2022-12-27T12:51:25.547Z,81.29
2022-12-27T12:54:01.255Z,80.62
2022-12-27T12:56:47.140Z,80.61
2022-12-27T12:59:26.386Z,81.39
2022-12-27T13:02:21.315Z,82.36
2022-12-27T13:04:56.420Z,81.92
2022-12-27T13:07:41.397Z,80.91
2022-12-27T13:10:50.006Z,81.65
2022-12-27T13:13:26.562Z,81.95
2022-12-27T13:16:12.644Z,82.04
2022-12-27T13:18:55.190Z,81.19
2022-12-27T13:21:43.434Z,81.17
2022-12-27T13:24:17.790Z,82.28
2022-12-27T13:27:02.812Z,83.52
2022-12-27T13:29:38.352Z,83.44
2022-12-27T13:32:27.576Z,82.95
2022-12-27T13:35:06.766Z,82.62
2022-12-27T13:37:52.762Z,83.40
2022-12-27T13:41:14.364Z,84.19
2022-12-27T13:44:20.330Z,82.56
2022-12-27T13:47:09.486Z,82.27
2022-12-27T13:49:49.756Z,82.35
2022-12-27T13:52:59.835Z,84.53
2022-12-27T13:55:45.693Z,84.85
2022-12-27T13:58:42.914Z,85.05
2022-12-27T14:01:28.514Z,85.52
2022-12-27T14:04:30.706Z,86.06
2022-12-27T14:07:35.960Z,85.21
2022-12-27T14:10:40.680Z,84.81
2022-12-27T14:13:09.025Z,85.92
2022-12-27T14:16:16.197Z,86.63
2022-12-27T14:18:46.290Z,86.28
2022-12-27T14:21:43.141Z,86.24
2022-12-27T14:24:32.258Z,87.20
2022-12-27T14:27:28.921Z,89.12
2022-12-27T14:30:33.964Z,89.02
2022-12-27T14:33:07.152Z,88.60
2022-12-27T14:35:56.408Z,88.19
2022-12-27T14:39:09.871Z,88.53
2022-12-27T14:42:11.696Z,87.74
2022-12-27T14:45:09.530Z,87.98
2022-12-27T14:48:08.276Z,88.78
2022-12-27T14:50:46.987Z,87.52
2022-12-27T14:53:42.514Z,87.14
2022-12-27T14:56:28.279Z,87.20
2022-12-27T14:59:14.477Z,87.66
2022-12-27T15:02:09.036Z,87.23
2022-12-27T15:05:04.889Z,87.21
2022-12-27T15:08:03.185Z,88.14
2022-12-27T15:11:05.352Z,88.00
2022-12-27T15:13:49.081Z,86.76
2022-12-27T15:16:18.662Z,87.02
2022-12-27T15:18:49.191Z,87.11
2022-12-27T15:21:19.158Z,87.14
2022-12-27T15:24:18.097Z,85.76
2022-12-27T15:27:02.283Z,85.58
2022-12-27T15:29:51.756Z,85.88
2022-12-27T15:32:52.672Z,86.24
2022-12-27T15:35:32.170Z,84.66
2022-12-27T15:38:11.954Z,84.44
2022-12-27T15:40:40.898Z,84.42
2022-12-27T15:43:44.842Z,84.78
2022-12-27T15:46:46.612Z,84.69
2022-12-27T15:49:16.804Z,83.58
2022-12-27T15:52:11.923Z,83.71
2022-12-27T15:55:00.384Z,84.22
2022-12-27T15:57:36.461Z,85.14
2022-12-27T16:00:09.565Z,83.97
2022-12-27T16:02:48.710Z,83.32
2022-12-27T16:05:31.015Z,83.31
2022-12-27T16:08:01.350Z,83.56
2022-12-27T16:10:31.496Z,84.10
2022-12-27T16:13:04.560Z,83.54
2022-12-27T16:15:44.788Z,81.89
2022-12-27T16:18:35.011Z,81.25
2022-12-27T16:21:03.241Z,82.22
2022-12-27T16:23:47.801Z,82.87
2022-12-27T16:26:26.900Z,83.46
2022-12-27T16:28:58.240Z,82.22
2022-12-27T16:31:26.835Z,82.11
2022-12-27T16:33:54.793Z,81.91
2022-12-27T16:36:23.299Z,82.62
2022-12-27T16:39:05.549Z,82.66
2022-12-27T16:41:57.103Z,82.14
2022-12-27T16:44:24.075Z,80.86
2022-12-27T16:46:59.987Z,80.82
2022-12-27T16:50:18.250Z,81.38
2022-12-27T16:53:03.994Z,81.70
2022-12-27T16:55:43.208Z,82.03
2022-12-27T16:58:29.201Z,80.93
2022-12-27T17:00:57.600Z,80.03
2022-12-27T17:03:36.978Z,80.51
2022-12-27T17:06:39.518Z,81.06
2022-12-27T17:09:06.404Z,82.22
2022-12-27T17:11:33.518Z,82.96
2022-12-27T17:14:04.392Z,81.85
2022-12-27T17:16:37.038Z,81.20
2022-12-27T17:19:08.629Z,81.59
2022-12-27T17:21:40.011Z,82.20
2022-12-27T17:24:16.463Z,82.87
2022-12-27T17:26:55.487Z,83.29
2022-12-27T17:29:51.932Z,81.99
2022-12-27T17:32:34.316Z,81.15
2022-12-27T17:35:10.454Z,81.20
2022-12-27T17:38:15.222Z,81.87
2022-12-27T17:40:56.815Z,82.74
2022-12-27T17:44:08.598Z,81.87
2022-12-27T17:46:39.129Z,80.36
2022-12-27T17:49:06.616Z,79.85
2022-12-27T17:51:33.605Z,80.67
2022-12-27T17:54:19.210Z,81.46
2022-12-27T17:57:05.269Z,81.90
2022-12-27T17:59:34.895Z,80.83
2022-12-27T18:02:07.139Z,80.10
2022-12-27T18:04:35.845Z,80.35
2022-12-27T18:07:08.324Z,81.02
2022-12-27T18:09:38.596Z,81.62
2022-12-27T18:12:15.285Z,81.87
2022-12-27T18:14:42.181Z,80.39
2022-12-27T18:17:25.285Z,79.63
2022-12-27T18:19:55.646Z,80.09
2022-12-27T18:22:28.590Z,80.90
2022-12-27T18:24:55.941Z,81.48
2022-12-27T18:27:24.493Z,81.61
2022-12-27T18:29:51.386Z,80.09
2022-12-27T18:32:18.582Z,79.27
2022-12-27T18:34:54.501Z,79.56
2022-12-27T18:37:22.962Z,79.89
2022-12-27T18:39:51.592Z,80.06
2022-12-27T18:42:34.684Z,80.68
2022-12-27T18:45:21.894Z,80.27
2022-12-27T18:47:51.067Z,76.81
2022-12-27T18:50:18.079Z,76.20
2022-12-27T18:52:49.793Z,76.37
2022-12-27T18:55:23.749Z,78.32
2022-12-27T18:57:50.599Z,79.93
2022-12-27T19:00:22.386Z,81.03
2022-12-27T19:02:49.554Z,80.99
2022-12-27T19:05:19.485Z,79.32
2022-12-27T19:07:52.361Z,78.41
2022-12-27T19:10:21.001Z,78.87
2022-12-27T19:12:48.082Z,79.03
2022-12-27T19:15:19.190Z,79.68
2022-12-27T19:17:47.880Z,80.81
2022-12-27T19:20:29.913Z,79.99
2022-12-27T19:22:57.921Z,78.54
2022-12-27T19:25:29.946Z,78.57
2022-12-27T19:27:57.821Z,79.20
2022-12-27T19:30:35.329Z,79.75
2022-12-27T19:33:02.959Z,81.05
2022-12-27T19:35:29.808Z,81.27
2022-12-27T19:37:57.374Z,80.44
2022-12-27T19:40:24.521Z,79.33
2022-12-27T19:42:51.487Z,79.34
2022-12-27T19:45:19.419Z,79.59
2022-12-27T19:47:49.068Z,80.56
2022-12-27T19:50:16.056Z,81.70
2022-12-27T19:52:43.145Z,81.60
2022-12-27T19:55:12.924Z,80.24
2022-12-27T19:57:40.632Z,79.49
2022-12-27T20:00:16.281Z,79.43
2022-12-27T20:02:43.359Z,79.97
2022-12-27T20:05:10.867Z,80.75
2022-12-27T20:07:37.807Z,81.39
2022-12-27T20:10:05.305Z,81.30
2022-12-27T20:12:33.004Z,80.34
2022-12-27T20:14:59.853Z,79.82
2022-12-27T20:17:28.680Z,80.34
2022-12-27T20:19:55.602Z,81.19
2022-12-27T20:22:22.727Z,82.03
2022-12-27T20:24:49.737Z,81.43
2022-12-27T20:27:16.650Z,79.99
2022-12-27T20:29:44.184Z,79.35
2022-12-27T20:32:11.204Z,79.79
2022-12-27T20:34:38.362Z,80.63
2022-12-27T20:37:05.339Z,80.94
2022-12-27T20:39:36.523Z,81.33
2022-12-27T20:42:03.525Z,81.29
2022-12-27T20:44:30.526Z,79.62
2022-12-27T20:46:57.526Z,78.72
2022-12-27T20:49:24.555Z,79.09
2022-12-27T20:51:51.553Z,79.27
2022-12-27T20:54:18.653Z,80.23
2022-12-27T20:56:45.529Z,80.81
2022-12-27T20:59:12.451Z,81.18
2022-12-27T21:01:39.655Z,80.13
2022-12-27T21:04:06.716Z,78.58
2022-12-27T21:06:33.746Z,78.55
2022-12-27T21:09:00.752Z,78.98
2022-12-27T21:11:31.486Z,79.71
2022-12-27T21:14:02.995Z,80.74
2022-12-27T21:16:31.454Z,81.29
2022-12-27T21:18:58.741Z,80.51
2022-12-27T21:21:28.336Z,79.24
2022-12-27T21:23:57.414Z,78.75
2022-12-27T21:26:29.322Z,79.02
2022-12-27T21:28:56.770Z,80.02
2022-12-27T21:31:23.978Z,80.93
2022-12-27T21:33:51.112Z,81.77
2022-12-27T21:36:22.977Z,80.77
2022-12-27T21:38:50.721Z,79.77
2022-12-27T21:41:19.130Z,79.92
2022-12-27T21:43:46.641Z,80.31
2022-12-27T21:46:18.183Z,80.89
2022-12-27T21:48:45.522Z,81.53
2022-12-27T21:51:16.370Z,80.61
2022-12-27T21:53:43.648Z,79.11
2022-12-27T21:56:11.324Z,78.46
2022-12-27T21:58:38.570Z,79.25
2022-12-27T22:01:08.958Z,80.03
2022-12-27T22:03:38.155Z,81.05
2022-12-27T22:06:10.009Z,81.09
2022-12-27T22:08:37.085Z,79.45
2022-12-27T22:11:04.374Z,78.36
2022-12-27T22:13:31.421Z,78.70
2022-12-27T22:15:59.454Z,79.22
2022-12-27T22:18:26.575Z,79.71
2022-12-27T22:20:59.304Z,80.28
2022-12-27T22:23:26.601Z,80.22
2022-12-27T22:25:53.623Z,78.75
2022-12-27T22:28:21.059Z,78.65
2022-12-27T22:30:49.963Z,79.25
2022-12-27T22:33:19.640Z,79.76
2022-12-27T22:35:49.751Z,80.36
2022-12-27T22:38:19.260Z,80.33
2022-12-27T22:40:49.317Z,79.05
2022-12-27T22:43:18.661Z,78.19
2022-12-27T22:45:53.451Z,79.10
2022-12-27T22:48:22.530Z,79.77
2022-12-27T22:50:52.295Z,80.35
2022-12-27T22:53:22.300Z,81.03
2022-12-27T22:55:52.303Z,80.43
2022-12-27T22:58:22.323Z,79.35
2022-12-27T23:00:51.944Z,78.78
2022-12-27T23:03:21.355Z,79.14
2022-12-27T23:06:02.901Z,80.00
2022-12-27T23:08:32.333Z,80.71
2022-12-27T23:11:05.802Z,80.41
2022-12-27T23:13:34.614Z,78.87
2022-12-27T23:16:04.380Z,78.86
2022-12-27T23:18:34.343Z,79.38
2022-12-27T23:21:21.294Z,80.20
2022-12-27T23:23:53.373Z,80.71
2022-12-27T23:26:23.526Z,81.02
2022-12-27T23:35:32.903Z,80.19
2022-12-27T23:37:59.924Z,80.77
2022-12-27T23:40:26.965Z,81.54
2022-12-27T23:42:53.909Z,81.36
2022-12-27T23:45:20.815Z,79.91
2022-12-27T23:47:47.714Z,79.77
2022-12-27T23:50:20.759Z,79.98
2022-12-27T23:52:48.024Z,81.01
2022-12-27T23:55:14.977Z,81.34
2022-12-27T23:57:42.028Z,80.91
